sensor_id;sensor_type;location;lat;lon;timestamp;pressure;altitude;pressure_sealevel;temperature;humidity
64967;BME280;51710;38.732;-121.358;2023-05-23T00:01:56;100258.38;;;33.89;30.52
64967;BME280;51710;38.732;-121.358;2023-05-23T00:04:23;100265.84;;;33.88;30.61
64967;BME280;51710;38.732;-121.358;2023-05-23T00:06:52;100268.94;;;33.87;30.30
64967;BME280;51710;38.732;-121.358;2023-05-23T00:09:18;100265.16;;;33.83;30.16
64967;BME280;51710;38.732;-121.358;2023-05-23T00:11:44;100268.09;;;33.78;30.72
64967;BME280;51710;38.732;-121.358;2023-05-23T00:14:11;100262.22;;;33.71;30.41
64967;BME280;51710;38.732;-121.358;2023-05-23T00:16:41;100254.72;;;33.63;30.69
64967;BME280;51710;38.732;-121.358;2023-05-23T00:19:12;100263.66;;;33.60;30.92
64967;BME280;51710;38.732;-121.358;2023-05-23T00:21:42;100265.78;;;33.63;30.67
64967;BME280;51710;38.732;-121.358;2023-05-23T00:24:08;100256.00;;;33.57;30.54
64967;BME280;51710;38.732;-121.358;2023-05-23T00:26:35;100258.56;;;33.45;30.90
64967;BME280;51710;38.732;-121.358;2023-05-23T00:29:02;100252.81;;;33.33;31.20
64967;BME280;51710;38.732;-121.358;2023-05-23T00:31:28;100251.28;;;33.18;32.04
64967;BME280;51710;38.732;-121.358;2023-05-23T00:33:54;100253.63;;;33.02;30.71
64967;BME280;51710;38.732;-121.358;2023-05-23T00:36:20;100249.66;;;32.86;31.17
64967;BME280;51710;38.732;-121.358;2023-05-23T00:38:47;100254.91;;;32.74;30.53
64967;BME280;51710;38.732;-121.358;2023-05-23T00:41:14;100248.22;;;32.67;30.48
64967;BME280;51710;38.732;-121.358;2023-05-23T00:43:40;100252.22;;;32.61;30.63
64967;BME280;51710;38.732;-121.358;2023-05-23T00:46:07;100245.03;;;32.51;30.82
64967;BME280;51710;38.732;-121.358;2023-05-23T00:48:35;100240.75;;;32.45;30.57
64967;BME280;51710;38.732;-121.358;2023-05-23T00:51:03;100251.91;;;32.40;30.38
64967;BME280;51710;38.732;-121.358;2023-05-23T00:53:29;100242.13;;;32.34;30.65
64967;BME280;51710;38.732;-121.358;2023-05-23T00:55:56;100241.72;;;32.27;30.80
64967;BME280;51710;38.732;-121.358;2023-05-23T00:58:22;100236.94;;;32.19;31.16
64967;BME280;51710;38.732;-121.358;2023-05-23T01:00:49;100238.22;;;32.13;30.69
64967;BME280;51710;38.732;-121.358;2023-05-23T01:03:19;100231.16;;;32.07;31.86
64967;BME280;51710;38.732;-121.358;2023-05-23T01:05:45;100231.91;;;31.99;32.65
64967;BME280;51710;38.732;-121.358;2023-05-23T01:08:11;100217.94;;;31.95;33.70
64967;BME280;51710;38.732;-121.358;2023-05-23T01:10:40;100222.00;;;31.98;34.74
64967;BME280;51710;38.732;-121.358;2023-05-23T01:13:12;100226.47;;;32.08;35.01
64967;BME280;51710;38.732;-121.358;2023-05-23T01:15:55;100221.16;;;32.11;30.68
64967;BME280;51710;38.732;-121.358;2023-05-23T01:18:39;100217.19;;;32.26;28.88
64967;BME280;51710;38.732;-121.358;2023-05-23T01:21:26;100224.75;;;32.34;28.17
64967;BME280;51710;38.732;-121.358;2023-05-23T01:29:27;100221.28;;;32.28;28.58
64967;BME280;51710;38.732;-121.358;2023-05-23T01:31:56;100215.41;;;32.21;28.96
64967;BME280;51710;38.732;-121.358;2023-05-23T01:34:23;100220.53;;;32.14;29.70
64967;BME280;51710;38.732;-121.358;2023-05-23T01:36:53;100212.38;;;32.09;30.89
64967;BME280;51710;38.732;-121.358;2023-05-23T01:39:23;100210.38;;;32.01;31.87
64967;BME280;51710;38.732;-121.358;2023-05-23T01:41:50;100219.38;;;31.93;31.85
64967;BME280;51710;38.732;-121.358;2023-05-23T01:44:17;100214.69;;;31.93;33.00
64967;BME280;51710;38.732;-121.358;2023-05-23T01:46:44;100220.19;;;31.93;33.34
64967;BME280;51710;38.732;-121.358;2023-05-23T01:49:13;100212.44;;;31.95;33.87
64967;BME280;51710;38.732;-121.358;2023-05-23T01:51:40;100218.66;;;32.01;34.34
64967;BME280;51710;38.732;-121.358;2023-05-23T01:54:07;100215.78;;;32.06;34.19
64967;BME280;51710;38.732;-121.358;2023-05-23T01:56:34;100213.50;;;32.08;34.69
64967;BME280;51710;38.732;-121.358;2023-05-23T01:59:01;100221.66;;;32.13;34.79
64967;BME280;51710;38.732;-121.358;2023-05-23T02:01:28;100218.38;;;32.47;34.30
64967;BME280;51710;38.732;-121.358;2023-05-23T02:03:55;100219.06;;;33.05;33.45
64967;BME280;51710;38.732;-121.358;2023-05-23T02:06:21;100213.84;;;33.43;33.19
64967;BME280;51710;38.732;-121.358;2023-05-23T02:08:47;100219.16;;;33.31;31.45
64967;BME280;51710;38.732;-121.358;2023-05-23T02:11:13;100210.75;;;32.96;32.01
64967;BME280;51710;38.732;-121.358;2023-05-23T02:13:40;100215.44;;;32.65;32.25
64967;BME280;51710;38.732;-121.358;2023-05-23T02:16:06;100215.94;;;32.45;32.66
64967;BME280;51710;38.732;-121.358;2023-05-23T02:18:33;100225.97;;;32.28;32.70
64967;BME280;51710;38.732;-121.358;2023-05-23T02:21:04;100216.09;;;32.05;32.94
64967;BME280;51710;38.732;-121.358;2023-05-23T02:23:30;100212.84;;;31.89;33.46
64967;BME280;51710;38.732;-121.358;2023-05-23T02:25:56;100217.56;;;31.75;34.09
64967;BME280;51710;38.732;-121.358;2023-05-23T02:28:23;100222.06;;;31.57;34.27
64967;BME280;51710;38.732;-121.358;2023-05-23T02:30:49;100223.00;;;31.39;34.92
64967;BME280;51710;38.732;-121.358;2023-05-23T02:33:15;100225.31;;;31.32;35.24
64967;BME280;51710;38.732;-121.358;2023-05-23T02:35:42;100228.47;;;31.26;35.56
64967;BME280;51710;38.732;-121.358;2023-05-23T02:38:08;100227.97;;;31.24;36.07
64967;BME280;51710;38.732;-121.358;2023-05-23T02:40:35;100228.78;;;31.24;36.16
64967;BME280;51710;38.732;-121.358;2023-05-23T02:43:01;100235.09;;;31.25;35.68
64967;BME280;51710;38.732;-121.358;2023-05-23T02:45:27;100234.47;;;31.14;34.70
64967;BME280;51710;38.732;-121.358;2023-05-23T02:47:53;100231.81;;;30.96;34.49
64967;BME280;51710;38.732;-121.358;2023-05-23T02:50:19;100228.78;;;30.78;34.59
64967;BME280;51710;38.732;-121.358;2023-05-23T02:52:46;100235.69;;;30.62;34.14
64967;BME280;51710;38.732;-121.358;2023-05-23T02:55:12;100246.34;;;30.50;34.37
64967;BME280;51710;38.732;-121.358;2023-05-23T02:57:38;100237.50;;;30.35;33.97
64967;BME280;51710;38.732;-121.358;2023-05-23T03:00:05;100240.53;;;30.15;33.72
64967;BME280;51710;38.732;-121.358;2023-05-23T03:02:32;100239.72;;;29.96;33.92
64967;BME280;51710;38.732;-121.358;2023-05-23T03:04:58;100236.38;;;29.80;33.41
64967;BME280;51710;38.732;-121.358;2023-05-23T03:07:24;100235.19;;;29.62;33.48
64967;BME280;51710;38.732;-121.358;2023-05-23T03:09:51;100242.00;;;29.46;33.72
64967;BME280;51710;38.732;-121.358;2023-05-23T03:12:17;100240.25;;;29.32;34.35
64967;BME280;51710;38.732;-121.358;2023-05-23T03:14:43;100238.72;;;29.21;34.84
64967;BME280;51710;38.732;-121.358;2023-05-23T03:17:12;100236.09;;;29.11;35.24
64967;BME280;51710;38.732;-121.358;2023-05-23T03:19:39;100231.78;;;29.00;35.75
64967;BME280;51710;38.732;-121.358;2023-05-23T03:22:05;100247.59;;;28.84;35.94
64967;BME280;51710;38.732;-121.358;2023-05-23T03:24:31;100240.88;;;28.66;36.58
64967;BME280;51710;38.732;-121.358;2023-05-23T03:26:57;100236.63;;;28.50;37.56
64967;BME280;51710;38.732;-121.358;2023-05-23T03:29:24;100241.13;;;28.36;37.74
64967;BME280;51710;38.732;-121.358;2023-05-23T03:31:50;100243.66;;;28.28;38.21
64967;BME280;51710;38.732;-121.358;2023-05-23T03:34:16;100247.28;;;28.18;38.54
64967;BME280;51710;38.732;-121.358;2023-05-23T03:36:42;100255.28;;;28.10;39.32
64967;BME280;51710;38.732;-121.358;2023-05-23T03:39:09;100256.44;;;27.99;39.81
64967;BME280;51710;38.732;-121.358;2023-05-23T03:41:35;100254.31;;;27.86;40.24
64967;BME280;51710;38.732;-121.358;2023-05-23T03:44:01;100257.34;;;27.79;41.03
64967;BME280;51710;38.732;-121.358;2023-05-23T03:46:28;100256.84;;;27.72;41.12
64967;BME280;51710;38.732;-121.358;2023-05-23T03:48:54;100257.41;;;27.64;41.88
64967;BME280;51710;38.732;-121.358;2023-05-23T03:51:20;100259.66;;;27.52;42.31
64967;BME280;51710;38.732;-121.358;2023-05-23T03:53:46;100268.44;;;27.44;42.71
64967;BME280;51710;38.732;-121.358;2023-05-23T03:56:13;100261.34;;;27.33;42.79
64967;BME280;51710;38.732;-121.358;2023-05-23T03:58:39;100274.75;;;27.24;43.35
64967;BME280;51710;38.732;-121.358;2023-05-23T04:01:05;100263.03;;;27.14;43.39
64967;BME280;51710;38.732;-121.358;2023-05-23T04:03:31;100265.78;;;27.04;43.75
64967;BME280;51710;38.732;-121.358;2023-05-23T04:05:58;100265.50;;;26.85;44.18
64967;BME280;51710;38.732;-121.358;2023-05-23T04:08:26;100267.97;;;26.66;44.58
64967;BME280;51710;38.732;-121.358;2023-05-23T04:10:52;100269.06;;;26.50;44.99
64967;BME280;51710;38.732;-121.358;2023-05-23T04:13:18;100278.59;;;26.38;45.08
64967;BME280;51710;38.732;-121.358;2023-05-23T04:15:45;100280.53;;;26.27;45.56
64967;BME280;51710;38.732;-121.358;2023-05-23T04:18:12;100273.66;;;26.20;45.70
64967;BME280;51710;38.732;-121.358;2023-05-23T04:20:40;100277.75;;;26.12;45.90
64967;BME280;51710;38.732;-121.358;2023-05-23T04:23:07;100283.19;;;26.07;46.24
64967;BME280;51710;38.732;-121.358;2023-05-23T04:25:33;100274.97;;;26.02;46.37
64967;BME280;51710;38.732;-121.358;2023-05-23T04:27:59;100284.47;;;25.95;46.61
64967;BME280;51710;38.732;-121.358;2023-05-23T04:30:26;100285.84;;;25.87;46.62
64967;BME280;51710;38.732;-121.358;2023-05-23T04:32:55;100292.34;;;25.76;46.98
64967;BME280;51710;38.732;-121.358;2023-05-23T04:35:23;100297.75;;;25.66;47.40
64967;BME280;51710;38.732;-121.358;2023-05-23T04:37:49;100301.53;;;25.60;47.48
64967;BME280;51710;38.732;-121.358;2023-05-23T04:40:15;100304.25;;;25.55;47.78
64967;BME280;51710;38.732;-121.358;2023-05-23T04:42:41;100304.22;;;25.50;47.54
64967;BME280;51710;38.732;-121.358;2023-05-23T04:45:09;100305.53;;;25.42;47.55
64967;BME280;51710;38.732;-121.358;2023-05-23T04:47:36;100322.66;;;25.33;48.35
64967;BME280;51710;38.732;-121.358;2023-05-23T04:50:02;100310.84;;;25.22;48.39
64967;BME280;51710;38.732;-121.358;2023-05-23T04:52:28;100314.63;;;25.16;48.49
64967;BME280;51710;38.732;-121.358;2023-05-23T04:54:57;100326.06;;;25.13;48.59
64967;BME280;51710;38.732;-121.358;2023-05-23T04:57:24;100320.84;;;25.07;48.63
64967;BME280;51710;38.732;-121.358;2023-05-23T04:59:51;100322.41;;;24.98;48.76
64967;BME280;51710;38.732;-121.358;2023-05-23T05:02:18;100319.06;;;24.91;48.96
64967;BME280;51710;38.732;-121.358;2023-05-23T05:04:44;100318.22;;;24.85;49.36
64967;BME280;51710;38.732;-121.358;2023-05-23T05:07:10;100322.50;;;24.76;49.51
64967;BME280;51710;38.732;-121.358;2023-05-23T05:09:37;100321.03;;;24.69;49.63
64967;BME280;51710;38.732;-121.358;2023-05-23T05:12:03;100327.53;;;24.63;49.85
64967;BME280;51710;38.732;-121.358;2023-05-23T05:14:29;100332.91;;;24.58;49.91
64967;BME280;51710;38.732;-121.358;2023-05-23T05:16:56;100327.38;;;24.47;49.84
64967;BME280;51710;38.732;-121.358;2023-05-23T05:19:23;100329.50;;;24.40;49.89
64967;BME280;51710;38.732;-121.358;2023-05-23T05:21:49;100330.50;;;24.34;50.23
64967;BME280;51710;38.732;-121.358;2023-05-23T05:24:16;100333.19;;;24.29;50.06
64967;BME280;51710;38.732;-121.358;2023-05-23T05:26:45;100337.47;;;24.25;50.65
64967;BME280;51710;38.732;-121.358;2023-05-23T05:29:12;100322.19;;;24.19;50.40
64967;BME280;51710;38.732;-121.358;2023-05-23T05:31:38;100331.94;;;24.15;50.81
64967;BME280;51710;38.732;-121.358;2023-05-23T05:34:05;100332.72;;;24.11;51.01
64967;BME280;51710;38.732;-121.358;2023-05-23T05:36:31;100334.22;;;24.02;51.30
64967;BME280;51710;38.732;-121.358;2023-05-23T05:38:58;100326.72;;;23.92;51.42
64967;BME280;51710;38.732;-121.358;2023-05-23T05:41:24;100326.09;;;23.85;51.41
64967;BME280;51710;38.732;-121.358;2023-05-23T05:43:51;100324.91;;;23.76;51.54
64967;BME280;51710;38.732;-121.358;2023-05-23T05:46:17;100329.22;;;23.72;51.57
64967;BME280;51710;38.732;-121.358;2023-05-23T05:48:45;100334.84;;;23.66;51.58
64967;BME280;51710;38.732;-121.358;2023-05-23T05:51:11;100332.03;;;23.61;51.88
64967;BME280;51710;38.732;-121.358;2023-05-23T05:53:38;100337.19;;;23.57;51.99
64967;BME280;51710;38.732;-121.358;2023-05-23T05:56:04;100340.38;;;23.54;51.94
64967;BME280;51710;38.732;-121.358;2023-05-23T05:58:30;100346.31;;;23.51;52.05
64967;BME280;51710;38.732;-121.358;2023-05-23T06:00:57;100337.00;;;23.47;52.24
64967;BME280;51710;38.732;-121.358;2023-05-23T06:03:23;100353.25;;;23.42;52.31
64967;BME280;51710;38.732;-121.358;2023-05-23T06:05:50;100341.22;;;23.38;52.38
64967;BME280;51710;38.732;-121.358;2023-05-23T06:08:16;100347.69;;;23.32;52.59
64967;BME280;51710;38.732;-121.358;2023-05-23T06:10:42;100344.84;;;23.27;52.40
64967;BME280;51710;38.732;-121.358;2023-05-23T06:13:09;100349.38;;;23.21;52.48
64967;BME280;51710;38.732;-121.358;2023-05-23T06:15:35;100343.03;;;23.16;52.66
64967;BME280;51710;38.732;-121.358;2023-05-23T06:18:01;100345.44;;;23.12;52.69
64967;BME280;51710;38.732;-121.358;2023-05-23T06:20:27;100341.00;;;23.06;52.80
64967;BME280;51710;38.732;-121.358;2023-05-23T06:22:54;100337.38;;;23.01;52.89
64967;BME280;51710;38.732;-121.358;2023-05-23T06:25:20;100340.28;;;22.94;52.70
64967;BME280;51710;38.732;-121.358;2023-05-23T06:27:46;100336.66;;;22.89;52.93
64967;BME280;51710;38.732;-121.358;2023-05-23T06:30:13;100343.06;;;22.83;52.82
64967;BME280;51710;38.732;-121.358;2023-05-23T06:32:40;100344.84;;;22.77;52.61
64967;BME280;51710;38.732;-121.358;2023-05-23T06:35:06;100336.53;;;22.67;52.85
64967;BME280;51710;38.732;-121.358;2023-05-23T06:37:32;100334.81;;;22.61;52.72
64967;BME280;51710;38.732;-121.358;2023-05-23T06:39:59;100331.19;;;22.56;52.92
64967;BME280;51710;38.732;-121.358;2023-05-23T06:42:26;100333.28;;;22.54;52.97
64967;BME280;51710;38.732;-121.358;2023-05-23T06:44:52;100323.97;;;22.50;52.57
64967;BME280;51710;38.732;-121.358;2023-05-23T06:47:18;100337.47;;;22.45;52.89
64967;BME280;51710;38.732;-121.358;2023-05-23T06:49:45;100331.44;;;22.43;52.78
64967;BME280;51710;38.732;-121.358;2023-05-23T06:52:11;100326.53;;;22.40;52.73
64967;BME280;51710;38.732;-121.358;2023-05-23T06:54:37;100332.69;;;22.35;52.58
64967;BME280;51710;38.732;-121.358;2023-05-23T06:57:04;100333.75;;;22.34;52.65
64967;BME280;51710;38.732;-121.358;2023-05-23T06:59:30;100340.50;;;22.31;52.75
64967;BME280;51710;38.732;-121.358;2023-05-23T07:01:56;100336.38;;;22.29;53.05
64967;BME280;51710;38.732;-121.358;2023-05-23T07:04:22;100338.25;;;22.28;53.29
64967;BME280;51710;38.732;-121.358;2023-05-23T07:06:49;100327.63;;;22.27;53.12
64967;BME280;51710;38.732;-121.358;2023-05-23T07:09:15;100335.19;;;22.25;53.16
64967;BME280;51710;38.732;-121.358;2023-05-23T07:11:41;100338.16;;;22.23;53.27
64967;BME280;51710;38.732;-121.358;2023-05-23T07:14:07;100340.28;;;22.21;53.23
64967;BME280;51710;38.732;-121.358;2023-05-23T07:16:34;100332.63;;;22.18;53.40
64967;BME280;51710;38.732;-121.358;2023-05-23T07:19:00;100332.88;;;22.17;53.53
64967;BME280;51710;38.732;-121.358;2023-05-23T07:21:27;100333.38;;;22.14;53.38
64967;BME280;51710;38.732;-121.358;2023-05-23T07:23:54;100333.84;;;22.11;53.34
64967;BME280;51710;38.732;-121.358;2023-05-23T07:26:20;100319.38;;;22.05;53.31
64967;BME280;51710;38.732;-121.358;2023-05-23T07:28:46;100333.16;;;22.04;53.66
64967;BME280;51710;38.732;-121.358;2023-05-23T07:31:13;100326.59;;;22.00;53.54
64967;BME280;51710;38.732;-121.358;2023-05-23T07:33:39;100332.47;;;21.97;53.48
64967;BME280;51710;38.732;-121.358;2023-05-23T07:36:05;100332.38;;;21.92;53.48
64967;BME280;51710;38.732;-121.358;2023-05-23T07:38:31;100333.69;;;21.89;53.48
64967;BME280;51710;38.732;-121.358;2023-05-23T07:40:58;100331.44;;;21.86;53.65
64967;BME280;51710;38.732;-121.358;2023-05-23T07:43:24;100337.84;;;21.80;53.71
64967;BME280;51710;38.732;-121.358;2023-05-23T07:45:50;100334.16;;;21.75;53.62
64967;BME280;51710;38.732;-121.358;2023-05-23T07:48:16;100332.19;;;21.70;53.07
64967;BME280;51710;38.732;-121.358;2023-05-23T07:50:42;100339.03;;;21.61;53.51
64967;BME280;51710;38.732;-121.358;2023-05-23T07:53:09;100327.59;;;21.59;53.61
64967;BME280;51710;38.732;-121.358;2023-05-23T07:55:35;100333.25;;;21.58;53.37
64967;BME280;51710;38.732;-121.358;2023-05-23T07:58:01;100333.25;;;21.58;53.29
64967;BME280;51710;38.732;-121.358;2023-05-23T08:00:27;100333.38;;;21.51;53.27
64967;BME280;51710;38.732;-121.358;2023-05-23T08:02:54;100327.03;;;21.46;53.61
64967;BME280;51710;38.732;-121.358;2023-05-23T08:05:20;100326.69;;;21.42;53.82
64967;BME280;51710;38.732;-121.358;2023-05-23T08:07:47;100327.72;;;21.41;53.82
64967;BME280;51710;38.732;-121.358;2023-05-23T08:10:13;100320.31;;;21.37;54.20
64967;BME280;51710;38.732;-121.358;2023-05-23T08:12:39;100321.59;;;21.34;54.32
64967;BME280;51710;38.732;-121.358;2023-05-23T08:15:06;100331.88;;;21.32;54.35
64967;BME280;51710;38.732;-121.358;2023-05-23T08:17:32;100326.91;;;21.29;54.47
64967;BME280;51710;38.732;-121.358;2023-05-23T08:19:59;100332.69;;;21.21;54.80
64967;BME280;51710;38.732;-121.358;2023-05-23T08:22:26;100335.75;;;21.13;54.98
64967;BME280;51710;38.732;-121.358;2023-05-23T08:24:52;100336.34;;;21.03;55.17
64967;BME280;51710;38.732;-121.358;2023-05-23T08:27:18;100348.53;;;20.94;55.14
64967;BME280;51710;38.732;-121.358;2023-05-23T08:29:45;100343.25;;;20.88;54.34
64967;BME280;51710;38.732;-121.358;2023-05-23T08:32:11;100342.53;;;20.81;54.37
64967;BME280;51710;38.732;-121.358;2023-05-23T08:34:38;100340.53;;;20.76;53.98
64967;BME280;51710;38.732;-121.358;2023-05-23T08:37:05;100343.44;;;20.75;54.17
64967;BME280;51710;38.732;-121.358;2023-05-23T08:39:31;100344.38;;;20.69;53.96
64967;BME280;51710;38.732;-121.358;2023-05-23T08:41:57;100346.13;;;20.63;54.35
64967;BME280;51710;38.732;-121.358;2023-05-23T08:44:24;100345.75;;;20.60;53.95
64967;BME280;51710;38.732;-121.358;2023-05-23T08:46:52;100349.97;;;20.56;53.90
64967;BME280;51710;38.732;-121.358;2023-05-23T08:49:19;100340.09;;;20.50;53.97
64967;BME280;51710;38.732;-121.358;2023-05-23T08:51:51;100346.41;;;20.44;53.90
64967;BME280;51710;38.732;-121.358;2023-05-23T08:54:23;100338.53;;;20.42;53.91
64967;BME280;51710;38.732;-121.358;2023-05-23T08:56:50;100338.16;;;20.39;53.99
64967;BME280;51710;38.732;-121.358;2023-05-23T08:59:18;100341.56;;;20.34;53.93
64967;BME280;51710;38.732;-121.358;2023-05-23T09:01:47;100332.84;;;20.32;54.13
64967;BME280;51710;38.732;-121.358;2023-05-23T09:04:13;100340.13;;;20.32;54.60
64967;BME280;51710;38.732;-121.358;2023-05-23T09:06:40;100342.00;;;20.31;54.34
64967;BME280;51710;38.732;-121.358;2023-05-23T09:09:06;100333.69;;;20.33;54.52
64967;BME280;51710;38.732;-121.358;2023-05-23T09:11:33;100332.03;;;20.32;54.68
64967;BME280;51710;38.732;-121.358;2023-05-23T09:14:00;100331.91;;;20.27;54.55
64967;BME280;51710;38.732;-121.358;2023-05-23T09:16:31;100336.81;;;20.18;54.79
64967;BME280;51710;38.732;-121.358;2023-05-23T09:18:59;100333.56;;;20.09;54.65
64967;BME280;51710;38.732;-121.358;2023-05-23T09:21:34;100327.41;;;20.02;54.66
64967;BME280;51710;38.732;-121.358;2023-05-23T09:24:01;100322.91;;;19.96;54.75
64967;BME280;51710;38.732;-121.358;2023-05-23T09:26:27;100321.72;;;19.92;54.82
64967;BME280;51710;38.732;-121.358;2023-05-23T09:28:56;100319.94;;;19.86;54.58
64967;BME280;51710;38.732;-121.358;2023-05-23T09:31:26;100327.66;;;19.83;54.39
64967;BME280;51710;38.732;-121.358;2023-05-23T09:33:56;100322.72;;;19.80;54.44
64967;BME280;51710;38.732;-121.358;2023-05-23T09:36:23;100322.34;;;19.76;54.04
64967;BME280;51710;38.732;-121.358;2023-05-23T09:38:54;100319.50;;;19.71;54.04
64967;BME280;51710;38.732;-121.358;2023-05-23T09:41:21;100314.53;;;19.68;53.97
64967;BME280;51710;38.732;-121.358;2023-05-23T09:43:52;100314.19;;;19.65;53.96
64967;BME280;51710;38.732;-121.358;2023-05-23T09:46:20;100321.75;;;19.56;53.96
64967;BME280;51710;38.732;-121.358;2023-05-23T09:48:50;100317.25;;;19.50;53.74
64967;BME280;51710;38.732;-121.358;2023-05-23T09:51:19;100311.09;;;19.43;54.06
64967;BME280;51710;38.732;-121.358;2023-05-23T09:53:49;100317.38;;;19.37;53.88
64967;BME280;51710;38.732;-121.358;2023-05-23T09:56:16;100319.94;;;19.32;53.85
64967;BME280;51710;38.732;-121.358;2023-05-23T09:58:47;100327.25;;;19.25;53.65
64967;BME280;51710;38.732;-121.358;2023-05-23T10:01:14;100317.78;;;19.16;54.18
64967;BME280;51710;38.732;-121.358;2023-05-23T10:03:48;100320.31;;;19.11;54.10
64967;BME280;51710;38.732;-121.358;2023-05-23T10:06:25;100326.78;;;19.10;54.25
64967;BME280;51710;38.732;-121.358;2023-05-23T10:09:06;100325.94;;;19.09;54.32
64967;BME280;51710;38.732;-121.358;2023-05-23T10:14:08;100323.63;;;19.13;54.28
64967;BME280;51710;38.732;-121.358;2023-05-23T10:16:54;100330.09;;;19.12;54.55
64967;BME280;51710;38.732;-121.358;2023-05-23T10:22:05;100334.44;;;19.13;54.66
64967;BME280;51710;38.732;-121.358;2023-05-23T10:24:32;100323.91;;;19.05;54.23
64967;BME280;51710;38.732;-121.358;2023-05-23T10:26:59;100326.50;;;18.93;54.74
64967;BME280;51710;38.732;-121.358;2023-05-23T10:29:28;100335.25;;;18.89;54.86
64967;BME280;51710;38.732;-121.358;2023-05-23T10:31:56;100328.66;;;18.85;55.18
64967;BME280;51710;38.732;-121.358;2023-05-23T10:36:59;100336.97;;;18.83;55.18
64967;BME280;51710;38.732;-121.358;2023-05-23T10:42:44;100327.88;;;18.78;55.57
64967;BME280;51710;38.732;-121.358;2023-05-23T10:45:21;100320.00;;;18.76;55.78
64967;BME280;51710;38.732;-121.358;2023-05-23T10:47:50;100320.84;;;18.77;55.34
64967;BME280;51710;38.732;-121.358;2023-05-23T10:50:32;100326.69;;;18.74;55.57
64967;BME280;51710;38.732;-121.358;2023-05-23T10:53:01;100326.53;;;18.69;55.77
64967;BME280;51710;38.732;-121.358;2023-05-23T10:55:34;100328.84;;;18.59;55.72
64967;BME280;51710;38.732;-121.358;2023-05-23T10:58:19;100325.22;;;18.47;56.18
64967;BME280;51710;38.732;-121.358;2023-05-23T11:01:01;100329.78;;;18.40;56.31
64967;BME280;51710;38.732;-121.358;2023-05-23T11:03:34;100329.00;;;18.33;56.45
64967;BME280;51710;38.732;-121.358;2023-05-23T11:06:04;100330.28;;;18.30;56.76
64967;BME280;51710;38.732;-121.358;2023-05-23T11:08:38;100328.00;;;18.27;57.10
64967;BME280;51710;38.732;-121.358;2023-05-23T11:11:07;100325.53;;;18.26;57.16
64967;BME280;51710;38.732;-121.358;2023-05-23T11:13:55;100322.44;;;18.22;56.84
64967;BME280;51710;38.732;-121.358;2023-05-23T11:21:45;100334.13;;;18.10;57.40
64967;BME280;51710;38.732;-121.358;2023-05-23T11:24:14;100336.44;;;18.06;57.52
64967;BME280;51710;38.732;-121.358;2023-05-23T11:26:54;100338.28;;;18.06;57.65
64967;BME280;51710;38.732;-121.358;2023-05-23T11:29:27;100332.28;;;18.04;57.66
64967;BME280;51710;38.732;-121.358;2023-05-23T11:31:55;100333.13;;;17.97;57.91
64967;BME280;51710;38.732;-121.358;2023-05-23T11:34:25;100327.56;;;17.92;57.96
64967;BME280;51710;38.732;-121.358;2023-05-23T11:36:53;100329.06;;;17.88;57.97
64967;BME280;51710;38.732;-121.358;2023-05-23T11:39:20;100339.25;;;17.80;58.13
64967;BME280;51710;38.732;-121.358;2023-05-23T11:42:04;100346.53;;;17.73;58.24
64967;BME280;51710;38.732;-121.358;2023-05-23T11:44:31;100348.16;;;17.74;58.22
64967;BME280;51710;38.732;-121.358;2023-05-23T11:47:05;100342.56;;;17.75;58.23
64967;BME280;51710;38.732;-121.358;2023-05-23T11:49:37;100331.38;;;17.72;58.18
64967;BME280;51710;38.732;-121.358;2023-05-23T11:52:04;100344.66;;;17.67;58.24
64967;BME280;51710;38.732;-121.358;2023-05-23T11:54:34;100343.44;;;17.63;58.55
64967;BME280;51710;38.732;-121.358;2023-05-23T11:57:01;100346.34;;;17.61;58.40
64967;BME280;51710;38.732;-121.358;2023-05-23T11:59:28;100339.75;;;17.51;58.63
64967;BME280;51710;38.732;-121.358;2023-05-23T12:01:55;100341.00;;;17.48;58.67
64967;BME280;51710;38.732;-121.358;2023-05-23T12:04:21;100337.25;;;17.49;58.92
64967;BME280;51710;38.732;-121.358;2023-05-23T12:06:48;100333.94;;;17.47;58.84
64967;BME280;51710;38.732;-121.358;2023-05-23T12:09:15;100331.88;;;17.43;58.83
64967;BME280;51710;38.732;-121.358;2023-05-23T12:11:43;100327.72;;;17.40;58.77
64967;BME280;51710;38.732;-121.358;2023-05-23T12:14:15;100325.47;;;17.37;59.25
64967;BME280;51710;38.732;-121.358;2023-05-23T12:16:45;100338.91;;;17.37;59.44
64967;BME280;51710;38.732;-121.358;2023-05-23T12:19:12;100345.34;;;17.36;59.30
64967;BME280;51710;38.732;-121.358;2023-05-23T12:21:46;100356.75;;;17.25;59.04
64967;BME280;51710;38.732;-121.358;2023-05-23T12:24:16;100355.09;;;17.18;59.34
64967;BME280;51710;38.732;-121.358;2023-05-23T12:27:01;100361.75;;;17.15;59.40
64967;BME280;51710;38.732;-121.358;2023-05-23T12:29:33;100354.28;;;17.17;59.75
64967;BME280;51710;38.732;-121.358;2023-05-23T12:32:03;100352.63;;;17.16;59.48
64967;BME280;51710;38.732;-121.358;2023-05-23T12:34:29;100349.31;;;17.14;59.50
64967;BME280;51710;38.732;-121.358;2023-05-23T12:36:57;100350.16;;;17.08;59.50
64967;BME280;51710;38.732;-121.358;2023-05-23T12:39:25;100346.22;;;17.04;59.69
64967;BME280;51710;38.732;-121.358;2023-05-23T12:41:53;100343.53;;;17.04;59.56
64967;BME280;51710;38.732;-121.358;2023-05-23T12:44:28;100337.94;;;16.99;59.87
64967;BME280;51710;38.732;-121.358;2023-05-23T12:46:56;100344.34;;;16.98;59.77